Decoded Metar for K2V5 ( in ) (IATA:) | Meteo·Mobile Aviation Weather
aviador You're here:

K2V5 Decoded Metar

in
Report Time2018-10-18 01:15:00
UTC Time2018-10-18 01:22:17
Flight Rules vfr VFR
Wind170° at 07 kt
W.Rank170° ranks 14
Current wind is below 170° avg. (9.9)
Visibility9999 m
Phenomena:N/A
Clouds:Scattered 120 Hf
Expected CloudBase > 4,400 ft AGL from Temp-Dew spread
CeilingNone
Temp12°C
Dew Point01°C (47% RH)
AAT7.7°C
QNH1030 hPa
Raw Report
K2V5 180115Z AUTO 17007KT 10SM SCT120 12/01 A3043 RMK AO2=

Extra information for K2V5:More info

Social comments